Time;durP1;ratioP1;P1;durP2;ratioP2;P2;SDS_P1;SDS_P2;PMS_P1;PMS_P2;Temp;Humidity;BMP_temperature;BMP_pressure;BME280_temperature;BME280_humidity;BME280_pressure;Samples;Min_cycle;Max_cycle;Signal;HPM_P1;HPM_P2
2023/04/17 00:00:08;;;;;;;4.88;2.60;;;;;;;;;;6303262;22;20022;-77
2023/04/17 00:02:38;;;;;;;3.67;2.65;;;;;;;;;;6298583;22;20328;-77
2023/04/17 00:05:05;;;;;;;6.45;3.42;;;;;;;;;;6299930;22;20014;-79
2023/04/17 00:07:33;;;;;;;6.28;4.28;;;;;;;;;;6299957;22;20036;-77
2023/04/17 00:09:59;;;;;;;3.40;2.60;;;;;;;;;;6301186;22;20448;-78
2023/04/17 00:12:25;;;;;;;3.72;2.80;;;;;;;;;;6295737;22;20041;-78
2023/04/17 00:14:51;;;;;;;5.57;3.10;;;;;;;;;;6299816;22;20007;-78
2023/04/17 00:17:17;;;;;;;3.13;2.83;;;;;;;;;;6301901;22;20003;-77
2023/04/17 00:19:44;;;;;;;4.60;3.20;;;;;;;;;;6303461;22;20038;-77
2023/04/17 00:22:10;;;;;;;4.10;3.13;;;;;;;;;;6300887;22;19999;-77
2023/04/17 00:24:36;;;;;;;3.30;2.78;;;;;;;;;;6301230;22;20011;-78
2023/04/17 00:27:02;;;;;;;3.65;2.90;;;;;;;;;;6302203;22;20451;-78
2023/04/17 00:29:28;;;;;;;5.45;3.38;;;;;;;;;;6301383;22;20428;-78
2023/04/17 00:31:54;;;;;;;5.18;3.40;;;;;;;;;;6300274;22;20012;-77
2023/04/17 00:34:20;;;;;;;5.97;5.35;;;;;;;;;;6300634;22;20006;-77
2023/04/17 00:36:46;;;;;;;5.68;4.80;;;;;;;;;;6301190;22;20010;-78
2023/04/17 00:39:13;;;;;;;6.50;3.45;;;;;;;;;;6301241;22;20030;-77
2023/04/17 00:41:39;;;;;;;6.40;3.42;;;;;;;;;;6302721;22;20010;-78
2023/04/17 00:44:05;;;;;;;4.10;2.95;;;;;;;;;;6302984;22;20010;-76
2023/04/17 00:46:32;;;;;;;5.05;3.60;;;;;;;;;;6300503;22;20011;-78
2023/04/17 00:48:58;;;;;;;4.18;3.00;;;;;;;;;;6304301;22;20082;-77
2023/04/17 00:51:24;;;;;;;4.22;2.83;;;;;;;;;;6302017;22;20030;-78
2023/04/17 00:53:51;;;;;;;4.10;3.13;;;;;;;;;;6298383;22;20030;-77
2023/04/17 00:56:17;;;;;;;4.93;3.15;;;;;;;;;;6329920;22;20006;-77
2023/04/17 00:58:43;;;;;;;6.45;3.40;;;;;;;;;;6332601;22;19995;-77
2023/04/17 01:01:09;;;;;;;4.63;2.78;;;;;;;;;;6306132;22;20013;-78
2023/04/17 01:03:36;;;;;;;4.20;2.80;;;;;;;;;;6334890;22;20007;-78
2023/04/17 01:06:02;;;;;;;6.05;3.70;;;;;;;;;;6333424;22;20003;-77
2023/04/17 01:08:30;;;;;;;5.32;3.70;;;;;;;;;;6308023;22;20007;-78
2023/04/17 01:10:56;;;;;;;5.28;3.53;;;;;;;;;;6305639;22;20493;-78
2023/04/17 01:13:23;;;;;;;4.35;2.72;;;;;;;;;;6334765;22;20435;-77
2023/04/17 01:15:49;;;;;;;6.93;3.80;;;;;;;;;;6304536;22;20043;-77
2023/04/17 01:18:15;;;;;;;3.20;2.67;;;;;;;;;;6335405;22;20070;-77
2023/04/17 01:20:41;;;;;;;5.18;3.38;;;;;;;;;;6333781;22;20037;-77
2023/04/17 01:23:07;;;;;;;6.55;4.20;;;;;;;;;;6335358;22;19998;-77
2023/04/17 01:25:34;;;;;;;5.00;3.03;;;;;;;;;;6306575;22;20374;-78
2023/04/17 01:28:01;;;;;;;5.13;3.40;;;;;;;;;;6333766;22;20339;-77
2023/04/17 01:30:27;;;;;;;6.93;4.20;;;;;;;;;;6333853;22;20379;-77
2023/04/17 01:32:54;;;;;;;4.53;3.47;;;;;;;;;;6304814;22;20006;-77
2023/04/17 01:35:20;;;;;;;5.70;3.60;;;;;;;;;;6307109;22;20396;-77
2023/04/17 01:37:46;;;;;;;5.53;3.78;;;;;;;;;;6334002;22;20525;-78
2023/04/17 01:40:12;;;;;;;3.83;3.20;;;;;;;;;;6332033;22;20044;-78
2023/04/17 01:42:39;;;;;;;6.03;4.10;;;;;;;;;;6304975;22;20014;-79
2023/04/17 01:45:05;;;;;;;5.72;3.88;;;;;;;;;;6333991;22;19999;-77
2023/04/17 01:47:31;;;;;;;7.15;3.97;;;;;;;;;;6333960;22;20009;-78
2023/04/17 01:49:57;;;;;;;6.03;3.55;;;;;;;;;;6305772;22;20466;-77
2023/04/17 01:52:24;;;;;;;7.18;4.35;;;;;;;;;;6333275;22;20036;-78
2023/04/17 01:54:50;;;;;;;6.40;4.90;;;;;;;;;;6305279;22;20011;-77
2023/04/17 01:57:16;;;;;;;7.90;5.00;;;;;;;;;;6333732;22;20446;-77
2023/04/17 01:59:42;;;;;;;6.60;4.85;;;;;;;;;;6306109;22;20503;-77
2023/04/17 02:02:08;;;;;;;8.95;5.40;;;;;;;;;;6330998;22;20432;-78
2023/04/17 02:04:34;;;;;;;11.05;6.72;;;;;;;;;;6334125;22;20009;-78
2023/04/17 02:07:00;;;;;;;9.18;5.38;;;;;;;;;;6303701;22;20020;-79
2023/04/17 02:09:26;;;;;;;7.30;4.50;;;;;;;;;;6302855;22;20011;-78
2023/04/17 02:11:52;;;;;;;7.68;4.57;;;;;;;;;;6333387;22;19999;-77
2023/04/17 02:14:19;;;;;;;4.97;3.78;;;;;;;;;;6333313;22;20356;-78
2023/04/17 02:16:45;;;;;;;6.65;4.78;;;;;;;;;;6305975;22;20014;-77
2023/04/17 02:19:11;;;;;;;8.82;5.45;;;;;;;;;;6331132;22;19999;-78
2023/04/17 02:21:37;;;;;;;5.07;4.18;;;;;;;;;;6303249;22;20386;-78
2023/04/17 02:24:05;;;;;;;6.53;4.13;;;;;;;;;;6305144;22;20040;-77
2023/04/17 02:26:31;;;;;;;9.38;5.60;;;;;;;;;;6333025;22;20010;-78
2023/04/17 02:28:57;;;;;;;9.00;4.97;;;;;;;;;;6305059;22;20347;-77
2023/04/17 02:31:23;;;;;;;6.43;5.65;;;;;;;;;;6327453;22;20668;-77
2023/04/17 02:33:49;;;;;;;5.47;4.00;;;;;;;;;;6305475;22;20018;-77
2023/04/17 02:36:15;;;;;;;6.80;4.35;;;;;;;;;;6302240;22;19998;-78
2023/04/17 02:38:42;;;;;;;4.97;3.92;;;;;;;;;;6304538;22;20006;-77
2023/04/17 02:41:08;;;;;;;7.93;5.43;;;;;;;;;;6305008;22;20006;-77
2023/04/17 02:43:35;;;;;;;5.15;4.13;;;;;;;;;;6300268;22;20044;-78
2023/04/17 02:46:01;;;;;;;6.38;4.50;;;;;;;;;;6333536;22;20340;-77
2023/04/17 02:48:27;;;;;;;6.25;4.03;;;;;;;;;;6303312;22;20034;-77
2023/04/17 02:50:53;;;;;;;8.48;4.35;;;;;;;;;;6303805;22;20003;-77
2023/04/17 02:53:20;;;;;;;6.38;4.00;;;;;;;;;;6303721;22;20037;-78
2023/04/17 02:55:46;;;;;;;4.53;3.95;;;;;;;;;;6305296;22;20389;-77
2023/04/17 02:58:12;;;;;;;5.32;3.80;;;;;;;;;;6332001;22;20009;-78
2023/04/17 03:00:38;;;;;;;5.72;4.15;;;;;;;;;;6305437;22;20089;-78
2023/04/17 03:03:04;;;;;;;6.88;4.03;;;;;;;;;;6331893;22;19999;-77
2023/04/17 03:05:31;;;;;;;6.07;3.95;;;;;;;;;;6333379;22;20483;-78
2023/04/17 03:07:58;;;;;;;6.22;4.10;;;;;;;;;;6333473;22;20002;-77
2023/04/17 03:10:24;;;;;;;4.78;3.88;;;;;;;;;;6303053;22;20496;-77
2023/04/17 03:12:50;;;;;;;4.43;3.78;;;;;;;;;;6305503;22;20003;-77
2023/04/17 03:15:16;;;;;;;7.88;4.55;;;;;;;;;;6330351;22;20071;-77
2023/04/17 03:17:42;;;;;;;5.07;3.95;;;;;;;;;;6330889;22;20481;-77
2023/04/17 03:20:08;;;;;;;5.32;4.50;;;;;;;;;;6333567;22;20071;-77
2023/04/17 03:22:35;;;;;;;5.43;3.78;;;;;;;;;;6331165;22;20006;-78
2023/04/17 03:25:02;;;;;;;4.53;4.00;;;;;;;;;;6334482;22;20030;-77
2023/04/17 03:27:28;;;;;;;5.13;4.00;;;;;;;;;;6333353;22;20025;-77
2023/04/17 03:29:57;;;;;;;5.15;3.80;;;;;;;;;;6330706;22;20488;-78
2023/04/17 03:32:23;;;;;;;5.00;3.67;;;;;;;;;;6332585;22;20010;-77
2023/04/17 03:34:50;;;;;;;4.70;3.95;;;;;;;;;;6305546;22;20379;-77
2023/04/17 03:37:16;;;;;;;5.05;3.95;;;;;;;;;;6332464;22;19999;-79
2023/04/17 03:39:42;;;;;;;6.95;4.50;;;;;;;;;;6332344;22;20010;-77
2023/04/17 03:42:11;;;;;;;7.53;4.18;;;;;;;;;;6332298;22;20006;-77
2023/04/17 03:44:37;;;;;;;4.75;3.70;;;;;;;;;;6332877;22;20006;-77
2023/04/17 03:47:03;;;;;;;6.03;3.88;;;;;;;;;;6331174;22;20339;-78
2023/04/17 03:49:29;;;;;;;6.05;3.80;;;;;;;;;;6332184;22;20006;-77
2023/04/17 03:51:56;;;;;;;5.80;4.45;;;;;;;;;;6306218;22;20093;-77
2023/04/17 03:54:22;;;;;;;7.38;4.72;;;;;;;;;;6306498;22;20006;-77
2023/04/17 03:56:48;;;;;;;5.13;3.88;;;;;;;;;;6334220;22;20545;-77
2023/04/17 03:59:14;;;;;;;6.75;4.82;;;;;;;;;;6304321;22;19999;-77
2023/04/17 04:01:41;;;;;;;5.93;4.30;;;;;;;;;;6334258;22;20026;-77
2023/04/17 04:04:07;;;;;;;6.30;4.03;;;;;;;;;;6334309;22;20006;-78
2023/04/17 04:06:33;;;;;;;6.53;5.10;;;;;;;;;;6333777;22;20052;-78
2023/04/17 04:08:59;;;;;;;9.20;6.95;;;;;;;;;;6306178;22;20011;-77
2023/04/17 04:11:26;;;;;;;8.23;5.88;;;;;;;;;;6333015;22;20074;-77
2023/04/17 04:13:52;;;;;;;8.70;6.03;;;;;;;;;;6333928;22;20044;-78
2023/04/17 04:16:18;;;;;;;6.53;4.97;;;;;;;;;;6306247;22;20011;-78
2023/04/17 04:18:44;;;;;;;5.70;4.65;;;;;;;;;;6334442;22;19995;-79
2023/04/17 04:21:11;;;;;;;6.45;4.18;;;;;;;;;;6333548;22;20003;-78
2023/04/17 04:23:39;;;;;;;5.45;4.35;;;;;;;;;;6334176;22;20022;-77
2023/04/17 04:26:06;;;;;;;6.85;4.57;;;;;;;;;;6307911;22;20060;-78
2023/04/17 04:28:32;;;;;;;7.13;5.07;;;;;;;;;;6332267;22;20011;-78
2023/04/17 04:31:01;;;;;;;6.07;4.32;;;;;;;;;;6335161;22;20033;-77
2023/04/17 04:33:28;;;;;;;5.78;4.63;;;;;;;;;;6334734;22;20019;-78
2023/04/17 04:35:59;;;;;;;6.43;4.43;;;;;;;;;;6334324;22;20005;-77
2023/04/17 04:38:29;;;;;;;6.28;4.88;;;;;;;;;;6306097;22;20369;-77
2023/04/17 04:41:00;;;;;;;6.00;4.53;;;;;;;;;;6332155;22;20007;-77
2023/04/17 04:43:29;;;;;;;6.97;4.30;;;;;;;;;;6306445;22;20086;-77
2023/04/17 04:45:55;;;;;;;5.38;4.18;;;;;;;;;;6332859;22;20010;-77
2023/04/17 04:48:22;;;;;;;5.82;4.28;;;;;;;;;;6335562;22;20020;-77
2023/04/17 04:50:48;;;;;;;6.20;4.43;;;;;;;;;;6303337;22;20096;-77
2023/04/17 04:53:14;;;;;;;6.43;4.25;;;;;;;;;;6306324;22;20006;-77
2023/04/17 04:55:40;;;;;;;6.30;4.78;;;;;;;;;;6330493;22;20374;-78
2023/04/17 04:58:06;;;;;;;7.53;4.35;;;;;;;;;;6331906;22;20023;-77
2023/04/17 05:00:32;;;;;;;7.18;4.25;;;;;;;;;;6305047;22;20068;-77
2023/04/17 05:02:58;;;;;;;7.57;4.68;;;;;;;;;;6305691;22;20010;-78
2023/04/17 05:05:25;;;;;;;7.75;4.40;;;;;;;;;;6336052;22;19995;-77
2023/04/17 05:07:53;;;;;;;6.55;3.83;;;;;;;;;;6306760;22;20029;-81
2023/04/17 05:10:19;;;;;;;5.80;4.00;;;;;;;;;;6306254;22;20007;-78
2023/04/17 05:12:46;;;;;;;5.45;4.45;;;;;;;;;;6334923;22;19999;-77
2023/04/17 05:15:12;;;;;;;6.45;4.25;;;;;;;;;;6306096;22;20003;-78
2023/04/17 05:17:38;;;;;;;5.53;4.10;;;;;;;;;;6303448;22;20010;-77
2023/04/17 05:20:08;;;;;;;6.75;4.63;;;;;;;;;;6302783;22;20042;-78
2023/04/17 05:22:34;;;;;;;6.10;4.57;;;;;;;;;;6304551;22;20037;-78
2023/04/17 05:25:00;;;;;;;5.70;4.38;;;;;;;;;;6302770;22;20284;-77
2023/04/17 05:27:26;;;;;;;6.55;4.57;;;;;;;;;;6303369;22;20011;-77
2023/04/17 05:29:52;;;;;;;5.85;4.20;;;;;;;;;;6330219;22;20006;-77
2023/04/17 05:32:18;;;;;;;6.43;4.32;;;;;;;;;;6332025;22;20031;-77
2023/04/17 05:34:47;;;;;;;6.25;4.20;;;;;;;;;;6330573;22;20027;-77
2023/04/17 05:37:13;;;;;;;10.45;4.88;;;;;;;;;;6303176;22;20007;-77
2023/04/17 05:39:39;;;;;;;4.93;4.10;;;;;;;;;;6331270;22;20704;-77
2023/04/17 05:42:06;;;;;;;6.35;4.55;;;;;;;;;;6306138;22;20017;-78
2023/04/17 05:44:32;;;;;;;5.80;4.22;;;;;;;;;;6332934;22;20002;-78
2023/04/17 05:47:02;;;;;;;5.65;4.18;;;;;;;;;;6306312;22;20373;-77
2023/04/17 05:49:28;;;;;;;7.60;4.97;;;;;;;;;;6334128;22;20003;-78
2023/04/17 05:51:54;;;;;;;5.55;4.32;;;;;;;;;;6305553;22;20309;-80
2023/04/17 05:54:20;;;;;;;8.05;4.93;;;;;;;;;;6334751;22;20029;-78
2023/04/17 05:56:48;;;;;;;6.13;4.20;;;;;;;;;;6305709;22;20007;-77
2023/04/17 05:59:14;;;;;;;7.10;4.38;;;;;;;;;;6334611;22;20028;-78
2023/04/17 06:01:42;;;;;;;4.28;3.20;;;;;;;;;;6306038;22;20427;-78
2023/04/17 06:04:08;;;;;;;6.18;4.55;;;;;;;;;;6306113;22;20018;-79
2023/04/17 06:06:34;;;;;;;5.70;4.00;;;;;;;;;;6334539;22;20007;-77
2023/04/17 06:09:00;;;;;;;4.15;3.33;;;;;;;;;;6334097;22;20027;-77
2023/04/17 06:11:27;;;;;;;6.50;3.78;;;;;;;;;;6305820;22;20002;-77
2023/04/17 06:13:53;;;;;;;5.68;3.97;;;;;;;;;;6334309;22;19994;-78
2023/04/17 06:16:20;;;;;;;4.38;3.83;;;;;;;;;;6333047;22;20362;-78
2023/04/17 06:18:46;;;;;;;4.63;3.88;;;;;;;;;;6305630;22;19999;-77
2023/04/17 06:21:13;;;;;;;4.53;3.47;;;;;;;;;;6333491;22;20051;-77
2023/04/17 06:23:39;;;;;;;6.32;3.70;;;;;;;;;;6333192;22;20412;-78
2023/04/17 06:26:05;;;;;;;4.93;3.42;;;;;;;;;;6334608;22;20488;-77
2023/04/17 06:28:32;;;;;;;6.15;3.47;;;;;;;;;;6333388;22;20094;-76
2023/04/17 06:30:58;;;;;;;6.55;3.55;;;;;;;;;;6333836;22;20039;-77
2023/04/17 06:33:25;;;;;;;4.93;3.55;;;;;;;;;;6333104;22;20281;-78
2023/04/17 06:35:51;;;;;;;4.25;3.28;;;;;;;;;;6306700;22;20815;-79
2023/04/17 06:38:17;;;;;;;5.82;3.15;;;;;;;;;;6332832;22;20003;-78
2023/04/17 06:40:43;;;;;;;4.35;3.10;;;;;;;;;;6305411;22;20007;-77
2023/04/17 06:43:09;;;;;;;5.90;3.58;;;;;;;;;;6304687;22;20021;-78
2023/04/17 06:45:35;;;;;;;5.50;3.20;;;;;;;;;;6331974;22;20412;-77
2023/04/17 06:48:02;;;;;;;4.78;3.45;;;;;;;;;;6306045;22;20014;-80
2023/04/17 06:50:28;;;;;;;5.80;3.70;;;;;;;;;;6304955;22;20045;-77
2023/04/17 06:52:54;;;;;;;4.53;3.38;;;;;;;;;;6333304;22;20013;-77
2023/04/17 06:55:20;;;;;;;4.82;3.70;;;;;;;;;;6304729;22;20080;-77
2023/04/17 06:57:46;;;;;;;4.32;3.05;;;;;;;;;;6332647;22;20417;-76
2023/04/17 07:00:13;;;;;;;4.40;3.35;;;;;;;;;;6333137;22;20078;-77
2023/04/17 07:02:39;;;;;;;4.47;3.33;;;;;;;;;;6304421;22;20007;-78
2023/04/17 07:05:06;;;;;;;6.30;3.70;;;;;;;;;;6306289;22;20002;-78
2023/04/17 07:07:34;;;;;;;5.22;3.40;;;;;;;;;;6305070;22;20002;-78
2023/04/17 07:10:00;;;;;;;4.55;3.35;;;;;;;;;;6333338;22;20026;-78
2023/04/17 07:12:26;;;;;;;6.40;3.17;;;;;;;;;;6305219;22;20003;-78
2023/04/17 07:14:53;;;;;;;5.40;3.22;;;;;;;;;;6304718;22;20356;-78
2023/04/17 07:17:19;;;;;;;3.83;3.08;;;;;;;;;;6305761;22;20003;-78
2023/04/17 07:19:45;;;;;;;5.80;3.03;;;;;;;;;;6305294;22;20363;-79
2023/04/17 07:22:11;;;;;;;4.95;3.42;;;;;;;;;;6307128;22;20427;-79
2023/04/17 07:24:37;;;;;;;5.28;3.50;;;;;;;;;;6334212;22;20620;-77
2023/04/17 07:27:05;;;;;;;5.40;3.20;;;;;;;;;;6334275;22;20347;-78
2023/04/17 07:29:31;;;;;;;3.92;3.00;;;;;;;;;;6305064;22;20013;-77
2023/04/17 07:31:58;;;;;;;4.32;3.00;;;;;;;;;;6333655;22;20022;-77
2023/04/17 07:34:24;;;;;;;4.43;2.97;;;;;;;;;;6334007;22;19999;-77
2023/04/17 07:36:51;;;;;;;3.15;2.78;;;;;;;;;;6332518;22;20314;-76
2023/04/17 07:39:17;;;;;;;3.40;2.70;;;;;;;;;;6304517;22;20026;-77
2023/04/17 07:41:43;;;;;;;5.25;3.13;;;;;;;;;;6307812;22;20013;-78
2023/04/17 07:44:10;;;;;;;4.47;2.67;;;;;;;;;;6306047;22;20015;-78
2023/04/17 07:46:36;;;;;;;5.78;3.08;;;;;;;;;;6304282;22;20023;-77
2023/04/17 07:49:02;;;;;;;4.97;3.33;;;;;;;;;;6333331;22;20013;-78
2023/04/17 07:51:30;;;;;;;4.40;2.80;;;;;;;;;;6304490;22;20009;-79
2023/04/17 07:53:56;;;;;;;5.68;2.83;;;;;;;;;;6304690;22;20022;-78
2023/04/17 07:56:23;;;;;;;3.95;2.50;;;;;;;;;;6331630;22;20019;-79
2023/04/17 07:58:50;;;;;;;4.32;2.85;;;;;;;;;;6305583;22;20034;-79
2023/04/17 08:01:17;;;;;;;4.47;2.78;;;;;;;;;;6304067;22;20014;-83
2023/04/17 08:03:43;;;;;;;4.20;2.60;;;;;;;;;;6307524;22;20495;-79
2023/04/17 08:06:09;;;;;;;4.20;2.95;;;;;;;;;;6303331;22;20045;-80
2023/04/17 08:08:36;;;;;;;3.97;2.53;;;;;;;;;;6304907;22;20311;-80
2023/04/17 08:11:02;;;;;;;3.25;2.67;;;;;;;;;;6333830;22;20003;-79
2023/04/17 08:13:32;;;;;;;3.10;2.80;;;;;;;;;;6333482;22;20031;-78
2023/04/17 08:15:58;;;;;;;3.25;2.50;;;;;;;;;;6332535;22;20020;-78
2023/04/17 08:18:24;;;;;;;2.80;2.50;;;;;;;;;;6305327;22;20007;-78
2023/04/17 08:20:51;;;;;;;3.83;2.53;;;;;;;;;;6305146;22;20009;-78
2023/04/17 08:23:17;;;;;;;2.80;2.13;;;;;;;;;;6303452;22;20087;-78
2023/04/17 08:25:44;;;;;;;2.58;2.08;;;;;;;;;;6305189;22;20003;-79
2023/04/17 08:28:10;;;;;;;3.65;2.20;;;;;;;;;;6304035;22;20500;-79
2023/04/17 08:30:36;;;;;;;2.45;2.00;;;;;;;;;;6333334;22;20641;-78
2023/04/17 08:33:03;;;;;;;2.47;1.80;;;;;;;;;;6304537;22;20007;-78
2023/04/17 08:35:29;;;;;;;2.40;2.13;;;;;;;;;;6333682;22;19994;-78
2023/04/17 08:37:57;;;;;;;2.65;2.25;;;;;;;;;;6306248;22;20026;-78
2023/04/17 08:40:25;;;;;;;2.90;2.22;;;;;;;;;;6306755;22;20336;-79
2023/04/17 08:42:52;;;;;;;2.40;2.17;;;;;;;;;;6304977;22;20030;-79
2023/04/17 08:45:21;;;;;;;2.45;1.92;;;;;;;;;;6335067;22;20041;-79
2023/04/17 08:47:47;;;;;;;2.80;1.90;;;;;;;;;;6333978;22;19998;-82
2023/04/17 08:50:15;;;;;;;2.60;2.20;;;;;;;;;;6333098;22;20070;-79
2023/04/17 08:52:46;;;;;;;2.70;2.08;;;;;;;;;;6333965;22;20003;-80
2023/04/17 08:55:14;;;;;;;2.10;1.80;;;;;;;;;;6307947;22;20019;-85
2023/04/17 08:57:56;;;;;;;2.53;1.90;;;;;;;;;;6335381;22;20076;-78
2023/04/17 09:00:26;;;;;;;2.00;1.80;;;;;;;;;;6307459;22;20296;-78
2023/04/17 09:02:53;;;;;;;2.00;1.80;;;;;;;;;;6307338;22;20010;-77
2023/04/17 09:05:20;;;;;;;1.77;1.60;;;;;;;;;;6307702;22;20022;-83
2023/04/17 09:07:47;;;;;;;2.10;1.90;;;;;;;;;;6305284;22;20455;-78
2023/04/17 09:10:13;;;;;;;2.42;1.90;;;;;;;;;;6334907;22;20007;-77
2023/04/17 09:12:40;;;;;;;2.42;2.22;;;;;;;;;;6305192;22;20487;-77
2023/04/17 09:15:17;;;;;;;2.45;1.90;;;;;;;;;;6334737;22;20071;-78
2023/04/17 09:17:43;;;;;;;2.10;1.85;;;;;;;;;;6332102;22;20010;-77
2023/04/17 09:20:11;;;;;;;3.72;2.17;;;;;;;;;;6307429;22;20010;-77
2023/04/17 09:22:39;;;;;;;3.25;2.08;;;;;;;;;;6331670;22;19998;-78
2023/04/17 09:25:15;;;;;;;2.95;2.28;;;;;;;;;;6334010;22;20018;-77
2023/04/17 09:27:41;;;;;;;2.08;1.80;;;;;;;;;;6335643;22;20217;-78
2023/04/17 09:30:07;;;;;;;3.80;2.00;;;;;;;;;;6306265;22;20100;-78
2023/04/17 09:32:34;;;;;;;1.85;1.73;;;;;;;;;;6306841;22;20363;-78
2023/04/17 09:35:01;;;;;;;2.30;2.00;;;;;;;;;;6279998;22;20021;-78
2023/04/17 09:37:50;;;;;;;2.38;2.00;;;;;;;;;;6305588;22;20002;-79
2023/04/17 09:40:17;;;;;;;3.85;2.00;;;;;;;;;;6333404;22;20060;-79
2023/04/17 09:43:05;;;;;;;2.33;1.80;;;;;;;;;;6304043;22;20015;-78
2023/04/17 09:45:38;;;;;;;2.00;1.70;;;;;;;;;;6306472;22;20011;-78
2023/04/17 09:48:10;;;;;;;2.55;1.85;;;;;;;;;;6333087;22;20355;-78
2023/04/17 09:50:37;;;;;;;3.80;2.53;;;;;;;;;;6305858;22;20094;-78
2023/04/17 09:53:03;;;;;;;2.33;2.00;;;;;;;;;;6332466;22;20439;-78
2023/04/17 09:55:30;;;;;;;2.50;1.90;;;;;;;;;;6306247;22;20043;-79
2023/04/17 09:57:57;;;;;;;5.05;2.28;;;;;;;;;;6306434;22;20002;-79
2023/04/17 10:00:28;;;;;;;2.53;1.95;;;;;;;;;;6333206;22;19999;-79
2023/04/17 10:02:55;;;;;;;2.15;1.80;;;;;;;;;;6332883;22;20055;-75
2023/04/17 10:05:23;;;;;;;4.38;1.90;;;;;;;;;;6332812;22;20014;-77
2023/04/17 10:07:49;;;;;;;2.00;1.80;;;;;;;;;;6332424;22;20026;-75
2023/04/17 10:10:22;;;;;;;2.70;2.00;;;;;;;;;;6335168;22;20002;-74
2023/04/17 10:12:50;;;;;;;4.90;1.80;;;;;;;;;;6333030;22;20408;-78
2023/04/17 10:15:16;;;;;;;3.25;2.03;;;;;;;;;;6305979;22;20078;-78
2023/04/17 10:17:42;;;;;;;3.58;2.08;;;;;;;;;;6306026;22;20007;-78
2023/04/17 10:20:18;;;;;;;4.43;1.92;;;;;;;;;;6306230;22;20003;-76
2023/04/17 10:22:48;;;;;;;2.53;2.33;;;;;;;;;;6330219;22;20431;-78
2023/04/17 10:25:14;;;;;;;3.75;2.10;;;;;;;;;;6304293;22;20003;-80
2023/04/17 10:27:40;;;;;;;2.30;2.00;;;;;;;;;;6331380;22;20037;-79
2023/04/17 10:30:11;;;;;;;2.60;2.15;;;;;;;;;;6332593;22;20350;-77
2023/04/17 10:32:38;;;;;;;3.50;2.13;;;;;;;;;;6306139;22;20007;-78
2023/04/17 10:35:16;;;;;;;3.88;2.30;;;;;;;;;;6332889;22;19999;-79
2023/04/17 10:37:49;;;;;;;2.15;1.90;;;;;;;;;;6333186;22;20002;-78
2023/04/17 10:40:26;;;;;;;5.32;2.10;;;;;;;;;;6334578;22;20071;-80
2023/04/17 10:43:04;;;;;;;4.32;2.67;;;;;;;;;;6333406;22;20377;-80
2023/04/17 10:45:50;;;;;;;2.20;1.92;;;;;;;;;;6333855;22;20828;-79
2023/04/17 10:48:43;;;;;;;3.45;2.10;;;;;;;;;;6305538;22;20003;-82
2023/04/17 10:53:50;;;;;;;3.53;2.10;;;;;;;;;;6333900;22;20007;-76
2023/04/17 10:56:26;;;;;;;3.75;2.33;;;;;;;;;;6303177;22;20042;-76
2023/04/17 10:58:56;;;;;;;2.60;2.03;;;;;;;;;;6304842;22;20030;-76
2023/04/17 11:01:28;;;;;;;3.67;2.10;;;;;;;;;;6304727;22;20007;-75
2023/04/17 11:03:55;;;;;;;2.97;2.35;;;;;;;;;;6306464;22;20018;-76
2023/04/17 11:06:21;;;;;;;3.17;2.22;;;;;;;;;;6332887;22;20030;-77
2023/04/17 11:08:49;;;;;;;5.47;2.28;;;;;;;;;;6333128;22;20006;-76
2023/04/17 11:11:17;;;;;;;4.90;3.00;;;;;;;;;;6332909;22;20076;-77
2023/04/17 11:13:47;;;;;;;2.88;2.40;;;;;;;;;;6331930;22;20148;-76
2023/04/17 11:16:14;;;;;;;3.10;2.63;;;;;;;;;;6303612;22;20431;-77
2023/04/17 11:18:41;;;;;;;3.95;2.60;;;;;;;;;;6301984;22;20083;-77
2023/04/17 11:21:10;;;;;;;3.30;2.42;;;;;;;;;;6304060;22;20003;-76
2023/04/17 11:23:36;;;;;;;3.47;2.53;;;;;;;;;;6302598;22;20080;-78
2023/04/17 11:26:02;;;;;;;3.58;2.38;;;;;;;;;;6332982;22;20003;-77
2023/04/17 11:28:28;;;;;;;5.25;2.38;;;;;;;;;;6330023;22;20446;-77
2023/04/17 11:30:54;;;;;;;4.43;2.90;;;;;;;;;;6304112;22;20320;-76
2023/04/17 11:33:21;;;;;;;4.80;2.80;;;;;;;;;;6331988;22;20006;-77
2023/04/17 11:35:47;;;;;;;5.55;2.92;;;;;;;;;;6305020;22;20029;-76
2023/04/17 11:38:23;;;;;;;3.78;2.72;;;;;;;;;;6303620;22;20364;-77
2023/04/17 11:40:50;;;;;;;4.10;2.60;;;;;;;;;;6332054;22;20002;-77
2023/04/17 11:43:17;;;;;;;4.32;2.58;;;;;;;;;;6331391;22;20003;-77
2023/04/17 11:45:44;;;;;;;3.30;2.60;;;;;;;;;;6304040;22;20021;-77
2023/04/17 11:48:11;;;;;;;3.38;2.67;;;;;;;;;;6303516;22;20079;-77
2023/04/17 11:50:38;;;;;;;3.55;2.65;;;;;;;;;;6332575;22;20011;-76
2023/04/17 11:53:06;;;;;;;5.50;3.00;;;;;;;;;;6333309;22;20006;-86
2023/04/17 11:55:33;;;;;;;4.28;2.83;;;;;;;;;;6332873;22;20010;-76
2023/04/17 11:58:05;;;;;;;6.43;3.20;;;;;;;;;;6306257;22;20006;-78
2023/04/17 12:00:31;;;;;;;4.15;3.20;;;;;;;;;;6305403;22;19999;-77
2023/04/17 12:02:59;;;;;;;3.35;2.72;;;;;;;;;;6334212;22;20305;-75
2023/04/17 12:05:26;;;;;;;6.97;3.40;;;;;;;;;;6305394;22;20007;-77
2023/04/17 12:08:06;;;;;;;3.83;2.60;;;;;;;;;;6330113;22;20056;-78
2023/04/17 12:10:38;;;;;;;4.65;3.05;;;;;;;;;;6330688;22;20392;-77
2023/04/17 12:13:06;;;;;;;3.50;2.60;;;;;;;;;;6333218;22;19998;-77
2023/04/17 12:15:32;;;;;;;4.00;2.45;;;;;;;;;;6331560;22;20018;-77
2023/04/17 12:17:58;;;;;;;2.70;2.30;;;;;;;;;;6333827;22;19995;-78
2023/04/17 12:20:25;;;;;;;3.55;2.28;;;;;;;;;;6305627;22;20031;-78
2023/04/17 12:22:51;;;;;;;3.38;2.50;;;;;;;;;;6332698;22;20393;-77
2023/04/17 12:25:17;;;;;;;2.50;1.80;;;;;;;;;;6331825;22;20035;-77
2023/04/17 12:27:43;;;;;;;2.80;2.05;;;;;;;;;;6305957;22;20172;-76
2023/04/17 12:30:10;;;;;;;5.25;2.63;;;;;;;;;;6305213;22;20011;-77
2023/04/17 12:32:38;;;;;;;4.20;2.40;;;;;;;;;;6333243;22;20435;-77
2023/04/17 12:35:04;;;;;;;2.60;1.95;;;;;;;;;;6303984;22;20002;-77
2023/04/17 12:37:30;;;;;;;5.97;2.53;;;;;;;;;;6304108;22;20007;-77
2023/04/17 12:39:58;;;;;;;3.33;2.38;;;;;;;;;;6304340;22;20362;-78
2023/04/17 12:42:24;;;;;;;3.58;2.40;;;;;;;;;;6332094;22;20007;-77
2023/04/17 12:44:50;;;;;;;3.30;2.97;;;;;;;;;;6333219;22;20339;-78
2023/04/17 12:47:16;;;;;;;4.50;2.88;;;;;;;;;;6305895;22;20007;-77
2023/04/17 12:49:42;;;;;;;3.53;2.20;;;;;;;;;;6307821;22;20034;-77
2023/04/17 12:52:08;;;;;;;5.10;2.50;;;;;;;;;;6333132;22;20002;-78
2023/04/17 12:54:35;;;;;;;4.43;2.55;;;;;;;;;;6334614;22;20005;-77
2023/04/17 12:57:01;;;;;;;2.70;2.10;;;;;;;;;;6332748;22;20002;-76
2023/04/17 12:59:27;;;;;;;3.13;2.40;;;;;;;;;;6304435;22;20010;-78
2023/04/17 13:01:53;;;;;;;4.25;2.20;;;;;;;;;;6332564;22;20056;-76
2023/04/17 13:04:19;;;;;;;4.70;2.90;;;;;;;;;;6333801;22;19999;-76
2023/04/17 13:06:45;;;;;;;2.33;2.10;;;;;;;;;;6332335;22;20003;-78
2023/04/17 13:09:11;;;;;;;4.55;2.15;;;;;;;;;;6333171;22;20003;-76
2023/04/17 13:11:37;;;;;;;4.35;2.40;;;;;;;;;;6333788;22;20014;-76
2023/04/17 13:14:04;;;;;;;2.95;2.30;;;;;;;;;;6306832;22;20007;-78
2023/04/17 13:16:30;;;;;;;2.72;2.20;;;;;;;;;;6304959;22;20089;-78
2023/04/17 13:18:56;;;;;;;4.28;2.20;;;;;;;;;;6306765;22;20041;-78
2023/04/17 13:21:22;;;;;;;3.42;2.20;;;;;;;;;;6306337;22;20495;-75
2023/04/17 13:23:48;;;;;;;3.33;2.20;;;;;;;;;;6305893;22;20081;-78
2023/04/17 13:26:14;;;;;;;3.53;2.42;;;;;;;;;;6301518;22;20033;-78
2023/04/17 13:28:41;;;;;;;5.40;3.08;;;;;;;;;;6306180;22;20055;-76
2023/04/17 13:31:07;;;;;;;3.83;2.70;;;;;;;;;;6334542;22;20075;-79
2023/04/17 13:33:33;;;;;;;4.35;2.85;;;;;;;;;;6308208;22;20007;-78
2023/04/17 13:35:59;;;;;;;4.72;2.70;;;;;;;;;;6334458;22;20003;-76
2023/04/17 13:38:25;;;;;;;4.53;2.65;;;;;;;;;;6306784;22;20003;-78
2023/04/17 13:40:51;;;;;;;5.75;3.05;;;;;;;;;;6307841;22;20652;-77
2023/04/17 13:43:17;;;;;;;3.47;2.70;;;;;;;;;;6305353;22;20854;-77
2023/04/17 13:45:44;;;;;;;7.78;2.85;;;;;;;;;;6334172;22;20009;-77
2023/04/17 13:48:10;;;;;;;6.93;3.00;;;;;;;;;;6334865;22;20002;-77
2023/04/17 13:50:36;;;;;;;4.78;2.50;;;;;;;;;;6306325;22;20029;-79
2023/04/17 13:53:02;;;;;;;4.82;2.88;;;;;;;;;;6305096;22;20481;-80
2023/04/17 13:55:28;;;;;;;4.90;2.90;;;;;;;;;;6301584;22;20023;-79
2023/04/17 13:57:55;;;;;;;4.85;3.13;;;;;;;;;;6305766;22;20029;-77
2023/04/17 14:00:21;;;;;;;4.95;2.90;;;;;;;;;;6306331;22;20003;-79
2023/04/17 14:02:47;;;;;;;5.60;2.53;;;;;;;;;;6304145;22;20037;-78
2023/04/17 14:05:13;;;;;;;3.70;3.17;;;;;;;;;;6306560;22;20003;-78
2023/04/17 14:07:39;;;;;;;5.45;2.78;;;;;;;;;;6306355;22;20007;-78
2023/04/17 14:10:06;;;;;;;4.43;3.10;;;;;;;;;;6303357;22;19999;-79
2023/04/17 14:12:33;;;;;;;3.15;2.65;;;;;;;;;;6333524;22;20101;-78
2023/04/17 14:14:59;;;;;;;3.08;2.47;;;;;;;;;;6305665;22;20020;-79
2023/04/17 14:17:26;;;;;;;4.40;2.50;;;;;;;;;;6334141;22;19999;-77
2023/04/17 14:19:52;;;;;;;6.43;2.30;;;;;;;;;;6333931;22;19998;-77
2023/04/17 14:22:18;;;;;;;5.22;2.50;;;;;;;;;;6306218;22;20017;-81
2023/04/17 14:24:45;;;;;;;5.97;2.58;;;;;;;;;;6333480;22;20434;-82
2023/04/17 14:27:11;;;;;;;3.80;2.72;;;;;;;;;;6332152;22;19999;-80
2023/04/17 14:29:37;;;;;;;3.08;2.45;;;;;;;;;;6305621;22;20007;-78
2023/04/17 14:32:04;;;;;;;7.45;2.83;;;;;;;;;;6331540;22;20003;-81
2023/04/17 14:34:30;;;;;;;3.53;2.47;;;;;;;;;;6304307;22;20424;-81
2023/04/17 14:36:56;;;;;;;4.60;2.47;;;;;;;;;;6302693;22;20006;-80
2023/04/17 14:39:22;;;;;;;3.40;2.13;;;;;;;;;;6332812;22;20053;-79
2023/04/17 14:41:48;;;;;;;5.45;2.53;;;;;;;;;;6332352;22;20318;-79
2023/04/17 14:44:14;;;;;;;5.40;2.40;;;;;;;;;;6332268;22;20013;-81